sensor_id;sensor_type;location;lat;lon;timestamp;temperature;humidity
48988;DHT22;34799;51.440;-2.534;2024-02-23T00:03:41;5.90;99.90
48988;DHT22;34799;51.440;-2.534;2024-02-23T00:06:08;5.50;99.90
48988;DHT22;34799;51.440;-2.534;2024-02-23T00:08:36;5.60;99.90
48988;DHT22;34799;51.440;-2.534;2024-02-23T00:16:00;5.90;99.90
48988;DHT22;34799;51.440;-2.534;2024-02-23T00:18:29;6.10;99.90
48988;DHT22;34799;51.440;-2.534;2024-02-23T00:23:25;5.80;99.90
48988;DHT22;34799;51.440;-2.534;2024-02-23T00:25:52;6.50;99.90
48988;DHT22;34799;51.440;-2.534;2024-02-23T00:28:19;5.60;99.90
48988;DHT22;34799;51.440;-2.534;2024-02-23T00:30:47;5.70;99.90
48988;DHT22;34799;51.440;-2.534;2024-02-23T00:33:14;5.70;99.90
48988;DHT22;34799;51.440;-2.534;2024-02-23T00:35:43;6.00;99.90
48988;DHT22;34799;51.440;-2.534;2024-02-23T00:38:10;5.90;99.90
48988;DHT22;34799;51.440;-2.534;2024-02-23T00:40:37;5.80;99.90
48988;DHT22;34799;51.440;-2.534;2024-02-23T00:43:06;6.10;99.90
48988;DHT22;34799;51.440;-2.534;2024-02-23T00:45:33;5.90;99.90
48988;DHT22;34799;51.440;-2.534;2024-02-23T00:48:01;5.80;99.90
48988;DHT22;34799;51.440;-2.534;2024-02-23T00:52:56;5.90;99.90
48988;DHT22;34799;51.440;-2.534;2024-02-23T00:55:24;5.70;99.90
48988;DHT22;34799;51.440;-2.534;2024-02-23T00:57:54;5.70;99.90
48988;DHT22;34799;51.440;-2.534;2024-02-23T01:00:21;5.40;99.90
48988;DHT22;34799;51.440;-2.534;2024-02-23T01:02:49;5.50;99.90
48988;DHT22;34799;51.440;-2.534;2024-02-23T01:05:17;5.40;99.90
48988;DHT22;34799;51.440;-2.534;2024-02-23T01:07:44;5.70;99.90
48988;DHT22;34799;51.440;-2.534;2024-02-23T01:10:12;5.60;99.90
48988;DHT22;34799;51.440;-2.534;2024-02-23T01:12:39;5.70;99.90
48988;DHT22;34799;51.440;-2.534;2024-02-23T01:15:07;5.80;99.90
48988;DHT22;34799;51.440;-2.534;2024-02-23T01:17:35;5.80;99.90
48988;DHT22;34799;51.440;-2.534;2024-02-23T01:20:03;5.50;99.90
48988;DHT22;34799;51.440;-2.534;2024-02-23T01:22:31;5.70;99.90
48988;DHT22;34799;51.440;-2.534;2024-02-23T01:24:58;5.40;99.90
48988;DHT22;34799;51.440;-2.534;2024-02-23T01:27:26;5.90;99.90
48988;DHT22;34799;51.440;-2.534;2024-02-23T01:29:53;5.70;99.90
48988;DHT22;34799;51.440;-2.534;2024-02-23T01:32:20;5.40;99.90
48988;DHT22;34799;51.440;-2.534;2024-02-23T01:34:47;5.70;99.90
48988;DHT22;34799;51.440;-2.534;2024-02-23T01:37:14;5.40;99.90
48988;DHT22;34799;51.440;-2.534;2024-02-23T01:42:09;5.50;99.90
48988;DHT22;34799;51.440;-2.534;2024-02-23T01:44:36;5.60;99.90
48988;DHT22;34799;51.440;-2.534;2024-02-23T01:47:04;5.40;99.90
48988;DHT22;34799;51.440;-2.534;2024-02-23T01:49:32;5.60;99.90
48988;DHT22;34799;51.440;-2.534;2024-02-23T01:52:00;5.60;99.90
48988;DHT22;34799;51.440;-2.534;2024-02-23T01:54:31;5.70;99.90
48988;DHT22;34799;51.440;-2.534;2024-02-23T01:56:58;5.50;99.90
48988;DHT22;34799;51.440;-2.534;2024-02-23T01:59:29;5.50;99.90
48988;DHT22;34799;51.440;-2.534;2024-02-23T02:01:56;5.60;99.90
48988;DHT22;34799;51.440;-2.534;2024-02-23T02:04:25;5.40;99.90
48988;DHT22;34799;51.440;-2.534;2024-02-23T02:06:52;5.70;99.90
48988;DHT22;34799;51.440;-2.534;2024-02-23T02:09:20;5.50;99.90
48988;DHT22;34799;51.440;-2.534;2024-02-23T02:11:48;5.60;99.90
48988;DHT22;34799;51.440;-2.534;2024-02-23T02:14:16;5.30;99.90
48988;DHT22;34799;51.440;-2.534;2024-02-23T02:16:44;5.40;99.90
48988;DHT22;34799;51.440;-2.534;2024-02-23T02:19:12;5.30;99.90
48988;DHT22;34799;51.440;-2.534;2024-02-23T02:21:42;5.10;99.90
48988;DHT22;34799;51.440;-2.534;2024-02-23T02:24:09;5.50;99.90
48988;DHT22;34799;51.440;-2.534;2024-02-23T02:26:37;5.20;99.90
48988;DHT22;34799;51.440;-2.534;2024-02-23T02:29:04;5.00;99.90
48988;DHT22;34799;51.440;-2.534;2024-02-23T02:31:31;5.50;99.90
48988;DHT22;34799;51.440;-2.534;2024-02-23T02:34:04;5.10;99.90
48988;DHT22;34799;51.440;-2.534;2024-02-23T02:36:31;5.90;99.90
48988;DHT22;34799;51.440;-2.534;2024-02-23T02:38:59;5.30;99.90
48988;DHT22;34799;51.440;-2.534;2024-02-23T02:41:29;5.30;99.90
48988;DHT22;34799;51.440;-2.534;2024-02-23T02:43:59;5.50;99.90
48988;DHT22;34799;51.440;-2.534;2024-02-23T02:46:26;5.10;99.90
48988;DHT22;34799;51.440;-2.534;2024-02-23T02:53:49;5.00;99.90
48988;DHT22;34799;51.440;-2.534;2024-02-23T02:56:17;5.00;99.90
48988;DHT22;34799;51.440;-2.534;2024-02-23T02:58:44;5.90;99.90
48988;DHT22;34799;51.440;-2.534;2024-02-23T03:01:12;5.20;99.90
48988;DHT22;34799;51.440;-2.534;2024-02-23T03:03:41;5.10;99.90
48988;DHT22;34799;51.440;-2.534;2024-02-23T03:08:36;5.20;99.90
48988;DHT22;34799;51.440;-2.534;2024-02-23T03:11:04;5.50;99.90
48988;DHT22;34799;51.440;-2.534;2024-02-23T03:13:32;5.50;99.90
48988;DHT22;34799;51.440;-2.534;2024-02-23T03:16:00;5.00;99.90
48988;DHT22;34799;51.440;-2.534;2024-02-23T03:18:27;5.10;99.90
48988;DHT22;34799;51.440;-2.534;2024-02-23T03:23:23;8.00;99.90
48988;DHT22;34799;51.440;-2.534;2024-02-23T03:25:50;5.40;99.90
48988;DHT22;34799;51.440;-2.534;2024-02-23T03:28:18;5.30;99.90
48988;DHT22;34799;51.440;-2.534;2024-02-23T03:30:45;5.30;99.90
48988;DHT22;34799;51.440;-2.534;2024-02-23T03:33:12;5.10;99.90
48988;DHT22;34799;51.440;-2.534;2024-02-23T03:35:39;5.40;99.90
48988;DHT22;34799;51.440;-2.534;2024-02-23T03:40:35;5.20;99.90
48988;DHT22;34799;51.440;-2.534;2024-02-23T03:43:04;5.60;99.90
48988;DHT22;34799;51.440;-2.534;2024-02-23T03:45:31;5.30;99.90
48988;DHT22;34799;51.440;-2.534;2024-02-23T03:48:00;7.60;99.90
48988;DHT22;34799;51.440;-2.534;2024-02-23T03:52:58;5.10;99.90
48988;DHT22;34799;51.440;-2.534;2024-02-23T03:55:26;5.20;99.90
48988;DHT22;34799;51.440;-2.534;2024-02-23T03:57:53;5.10;99.90
48988;DHT22;34799;51.440;-2.534;2024-02-23T04:00:20;5.40;99.90
48988;DHT22;34799;51.440;-2.534;2024-02-23T04:02:50;5.20;99.90
48988;DHT22;34799;51.440;-2.534;2024-02-23T04:05:18;5.90;99.90
48988;DHT22;34799;51.440;-2.534;2024-02-23T04:07:58;5.40;99.90
48988;DHT22;34799;51.440;-2.534;2024-02-23T04:10:25;5.20;99.90
48988;DHT22;34799;51.440;-2.534;2024-02-23T04:12:53;5.40;99.90
48988;DHT22;34799;51.440;-2.534;2024-02-23T04:15:21;5.40;99.90
48988;DHT22;34799;51.440;-2.534;2024-02-23T04:17:48;5.30;99.90
48988;DHT22;34799;51.440;-2.534;2024-02-23T04:22:43;5.40;99.90
48988;DHT22;34799;51.440;-2.534;2024-02-23T04:27:40;5.20;99.90
48988;DHT22;34799;51.440;-2.534;2024-02-23T04:35:03;5.50;99.90
48988;DHT22;34799;51.440;-2.534;2024-02-23T04:37:30;5.80;99.90
48988;DHT22;34799;51.440;-2.534;2024-02-23T04:42:28;5.00;99.90
48988;DHT22;34799;51.440;-2.534;2024-02-23T04:44:55;5.60;99.90
48988;DHT22;34799;51.440;-2.534;2024-02-23T04:47:22;5.60;99.90
48988;DHT22;34799;51.440;-2.534;2024-02-23T04:49:49;5.50;99.90
48988;DHT22;34799;51.440;-2.534;2024-02-23T04:52:17;5.90;99.90
48988;DHT22;34799;51.440;-2.534;2024-02-23T04:54:44;5.40;99.90
48988;DHT22;34799;51.440;-2.534;2024-02-23T04:59:39;5.40;99.90
48988;DHT22;34799;51.440;-2.534;2024-02-23T05:04:35;5.40;99.90
48988;DHT22;34799;51.440;-2.534;2024-02-23T05:07:02;5.20;99.90
48988;DHT22;34799;51.440;-2.534;2024-02-23T05:11:56;5.50;99.90
48988;DHT22;34799;51.440;-2.534;2024-02-23T05:14:24;5.30;99.90
48988;DHT22;34799;51.440;-2.534;2024-02-23T05:16:52;5.40;99.90
48988;DHT22;34799;51.440;-2.534;2024-02-23T05:19:19;5.40;99.90
48988;DHT22;34799;51.440;-2.534;2024-02-23T05:21:47;5.50;99.90
48988;DHT22;34799;51.440;-2.534;2024-02-23T05:24:14;5.40;99.90
48988;DHT22;34799;51.440;-2.534;2024-02-23T05:26:42;5.70;99.90
48988;DHT22;34799;51.440;-2.534;2024-02-23T05:29:12;6.40;99.90
48988;DHT22;34799;51.440;-2.534;2024-02-23T05:31:49;5.50;99.90
48988;DHT22;34799;51.440;-2.534;2024-02-23T05:36:45;5.30;99.90
48988;DHT22;34799;51.440;-2.534;2024-02-23T05:39:17;5.50;99.90
48988;DHT22;34799;51.440;-2.534;2024-02-23T05:44:12;6.00;99.90
48988;DHT22;34799;51.440;-2.534;2024-02-23T05:46:43;5.50;99.90
48988;DHT22;34799;51.440;-2.534;2024-02-23T05:49:10;5.30;99.90
48988;DHT22;34799;51.440;-2.534;2024-02-23T05:51:38;5.90;99.90
48988;DHT22;34799;51.440;-2.534;2024-02-23T05:54:06;5.40;99.90
48988;DHT22;34799;51.440;-2.534;2024-02-23T05:56:33;5.10;99.90
48988;DHT22;34799;51.440;-2.534;2024-02-23T05:59:01;5.70;99.90
48988;DHT22;34799;51.440;-2.534;2024-02-23T06:01:28;5.60;99.90
48988;DHT22;34799;51.440;-2.534;2024-02-23T06:03:56;5.70;99.90
48988;DHT22;34799;51.440;-2.534;2024-02-23T06:06:23;5.50;99.90
48988;DHT22;34799;51.440;-2.534;2024-02-23T06:08:50;5.40;99.90
48988;DHT22;34799;51.440;-2.534;2024-02-23T06:11:17;5.30;99.90
48988;DHT22;34799;51.440;-2.534;2024-02-23T06:13:45;5.40;99.90
48988;DHT22;34799;51.440;-2.534;2024-02-23T06:16:12;5.40;99.90
48988;DHT22;34799;51.440;-2.534;2024-02-23T06:18:40;5.30;99.90
48988;DHT22;34799;51.440;-2.534;2024-02-23T06:21:17;5.50;99.90
48988;DHT22;34799;51.440;-2.534;2024-02-23T06:23:45;5.50;99.90
48988;DHT22;34799;51.440;-2.534;2024-02-23T06:26:13;5.10;99.90
48988;DHT22;34799;51.440;-2.534;2024-02-23T06:28:40;5.50;99.90
48988;DHT22;34799;51.440;-2.534;2024-02-23T06:31:12;5.60;99.90
48988;DHT22;34799;51.440;-2.534;2024-02-23T06:33:39;6.20;99.90
48988;DHT22;34799;51.440;-2.534;2024-02-23T06:36:08;5.50;99.90
48988;DHT22;34799;51.440;-2.534;2024-02-23T06:38:36;5.40;99.90
48988;DHT22;34799;51.440;-2.534;2024-02-23T06:41:03;5.50;99.90
48988;DHT22;34799;51.440;-2.534;2024-02-23T06:46:05;5.60;99.90
48988;DHT22;34799;51.440;-2.534;2024-02-23T06:48:33;5.40;99.90
48988;DHT22;34799;51.440;-2.534;2024-02-23T06:51:01;5.20;99.90
48988;DHT22;34799;51.440;-2.534;2024-02-23T06:55:56;5.60;99.90
48988;DHT22;34799;51.440;-2.534;2024-02-23T06:58:25;5.30;99.90
48988;DHT22;34799;51.440;-2.534;2024-02-23T07:03:21;5.40;99.90
48988;DHT22;34799;51.440;-2.534;2024-02-23T07:05:48;5.50;99.90
48988;DHT22;34799;51.440;-2.534;2024-02-23T07:08:18;5.80;99.90
48988;DHT22;34799;51.440;-2.534;2024-02-23T07:10:46;5.20;99.90
48988;DHT22;34799;51.440;-2.534;2024-02-23T07:13:13;5.60;99.90
48988;DHT22;34799;51.440;-2.534;2024-02-23T07:15:40;5.30;99.90
48988;DHT22;34799;51.440;-2.534;2024-02-23T07:18:08;5.90;99.90
48988;DHT22;34799;51.440;-2.534;2024-02-23T07:20:38;5.50;99.90
48988;DHT22;34799;51.440;-2.534;2024-02-23T07:23:06;5.50;99.90
48988;DHT22;34799;51.440;-2.534;2024-02-23T07:25:34;5.60;99.90
48988;DHT22;34799;51.440;-2.534;2024-02-23T07:28:01;5.50;99.90
48988;DHT22;34799;51.440;-2.534;2024-02-23T07:30:29;5.30;99.90
48988;DHT22;34799;51.440;-2.534;2024-02-23T07:32:56;5.60;99.90
48988;DHT22;34799;51.440;-2.534;2024-02-23T07:35:24;5.40;99.90
48988;DHT22;34799;51.440;-2.534;2024-02-23T07:37:52;5.50;99.90
48988;DHT22;34799;51.440;-2.534;2024-02-23T07:40:19;5.50;99.90
48988;DHT22;34799;51.440;-2.534;2024-02-23T07:42:47;5.40;99.90
48988;DHT22;34799;51.440;-2.534;2024-02-23T07:45:14;5.40;99.90
48988;DHT22;34799;51.440;-2.534;2024-02-23T07:47:41;5.60;99.90
48988;DHT22;34799;51.440;-2.534;2024-02-23T07:50:09;5.50;99.90
48988;DHT22;34799;51.440;-2.534;2024-02-23T07:55:04;5.40;99.90
48988;DHT22;34799;51.440;-2.534;2024-02-23T07:57:32;5.70;99.90
48988;DHT22;34799;51.440;-2.534;2024-02-23T08:02:38;5.80;99.90
48988;DHT22;34799;51.440;-2.534;2024-02-23T08:05:06;5.80;99.90
48988;DHT22;34799;51.440;-2.534;2024-02-23T08:07:33;5.80;99.90
48988;DHT22;34799;51.440;-2.534;2024-02-23T08:10:01;5.80;99.90
48988;DHT22;34799;51.440;-2.534;2024-02-23T08:12:32;5.80;99.90
48988;DHT22;34799;51.440;-2.534;2024-02-23T08:14:59;6.10;99.90
48988;DHT22;34799;51.440;-2.534;2024-02-23T08:17:27;6.00;99.90
48988;DHT22;34799;51.440;-2.534;2024-02-23T08:19:54;5.80;99.90
48988;DHT22;34799;51.440;-2.534;2024-02-23T08:22:21;5.70;99.90
48988;DHT22;34799;51.440;-2.534;2024-02-23T08:24:50;5.80;99.90
48988;DHT22;34799;51.440;-2.534;2024-02-23T08:27:18;6.50;99.90
48988;DHT22;34799;51.440;-2.534;2024-02-23T08:29:46;5.80;99.90
48988;DHT22;34799;51.440;-2.534;2024-02-23T08:32:13;5.80;99.90
48988;DHT22;34799;51.440;-2.534;2024-02-23T08:37:08;5.80;99.90
48988;DHT22;34799;51.440;-2.534;2024-02-23T08:39:36;6.00;99.90
48988;DHT22;34799;51.440;-2.534;2024-02-23T08:42:04;6.00;99.90
48988;DHT22;34799;51.440;-2.534;2024-02-23T08:44:31;6.00;99.90
48988;DHT22;34799;51.440;-2.534;2024-02-23T08:51:54;5.60;99.90
48988;DHT22;34799;51.440;-2.534;2024-02-23T08:54:22;5.70;99.90
48988;DHT22;34799;51.440;-2.534;2024-02-23T08:56:49;5.80;99.90
48988;DHT22;34799;51.440;-2.534;2024-02-23T08:59:16;6.00;99.90
48988;DHT22;34799;51.440;-2.534;2024-02-23T09:01:43;5.80;99.90
48988;DHT22;34799;51.440;-2.534;2024-02-23T09:06:41;5.80;99.90
48988;DHT22;34799;51.440;-2.534;2024-02-23T09:09:08;6.10;99.90
48988;DHT22;34799;51.440;-2.534;2024-02-23T09:14:04;5.70;99.90
48988;DHT22;34799;51.440;-2.534;2024-02-23T09:16:31;5.80;99.90
48988;DHT22;34799;51.440;-2.534;2024-02-23T09:21:27;5.50;99.90
48988;DHT22;34799;51.440;-2.534;2024-02-23T09:23:54;5.60;99.90
48988;DHT22;34799;51.440;-2.534;2024-02-23T09:26:21;6.10;99.90
48988;DHT22;34799;51.440;-2.534;2024-02-23T09:28:49;4.80;99.90
48988;DHT22;34799;51.440;-2.534;2024-02-23T09:31:17;6.10;99.90
48988;DHT22;34799;51.440;-2.534;2024-02-23T09:36:17;6.50;99.90
48988;DHT22;34799;51.440;-2.534;2024-02-23T09:38:45;6.70;99.90
48988;DHT22;34799;51.440;-2.534;2024-02-23T09:41:19;6.60;99.90
48988;DHT22;34799;51.440;-2.534;2024-02-23T09:43:47;6.70;99.90
48988;DHT22;34799;51.440;-2.534;2024-02-23T09:46:19;6.60;99.90
48988;DHT22;34799;51.440;-2.534;2024-02-23T09:48:48;6.70;99.90
48988;DHT22;34799;51.440;-2.534;2024-02-23T09:51:18;6.80;99.90
48988;DHT22;34799;51.440;-2.534;2024-02-23T10:04:21;6.90;99.90
48988;DHT22;34799;51.440;-2.534;2024-02-23T10:06:49;6.70;99.90
48988;DHT22;34799;51.440;-2.534;2024-02-23T10:09:16;7.00;99.90
48988;DHT22;34799;51.440;-2.534;2024-02-23T10:11:43;6.70;99.90
48988;DHT22;34799;51.440;-2.534;2024-02-23T10:14:12;6.60;99.90
48988;DHT22;34799;51.440;-2.534;2024-02-23T10:16:39;7.10;99.90
48988;DHT22;34799;51.440;-2.534;2024-02-23T10:19:07;6.70;99.90
48988;DHT22;34799;51.440;-2.534;2024-02-23T10:21:34;6.70;99.90
48988;DHT22;34799;51.440;-2.534;2024-02-23T10:24:02;7.10;99.90
48988;DHT22;34799;51.440;-2.534;2024-02-23T10:26:30;6.90;99.90
48988;DHT22;34799;51.440;-2.534;2024-02-23T10:31:26;6.80;99.90
48988;DHT22;34799;51.440;-2.534;2024-02-23T10:33:57;7.00;99.90
48988;DHT22;34799;51.440;-2.534;2024-02-23T10:36:29;6.90;99.90
48988;DHT22;34799;51.440;-2.534;2024-02-23T10:39:02;7.10;99.90
48988;DHT22;34799;51.440;-2.534;2024-02-23T10:41:33;7.60;99.90
48988;DHT22;34799;51.440;-2.534;2024-02-23T10:44:01;7.50;99.90
48988;DHT22;34799;51.440;-2.534;2024-02-23T10:46:31;7.50;99.90
48988;DHT22;34799;51.440;-2.534;2024-02-23T10:48:59;7.40;99.90
48988;DHT22;34799;51.440;-2.534;2024-02-23T10:51:28;7.10;99.90
48988;DHT22;34799;51.440;-2.534;2024-02-23T10:53:57;7.40;99.90
48988;DHT22;34799;51.440;-2.534;2024-02-23T10:56:25;7.50;99.90
48988;DHT22;34799;51.440;-2.534;2024-02-23T10:58:54;7.50;99.90
48988;DHT22;34799;51.440;-2.534;2024-02-23T11:01:22;7.20;99.90
48988;DHT22;34799;51.440;-2.534;2024-02-23T11:03:52;7.40;99.90
48988;DHT22;34799;51.440;-2.534;2024-02-23T11:06:27;7.50;99.90
48988;DHT22;34799;51.440;-2.534;2024-02-23T11:09:05;7.50;99.90
48988;DHT22;34799;51.440;-2.534;2024-02-23T11:11:33;7.60;99.90
48988;DHT22;34799;51.440;-2.534;2024-02-23T11:14:08;7.90;99.90
48988;DHT22;34799;51.440;-2.534;2024-02-23T11:16:40;7.90;99.90
48988;DHT22;34799;51.440;-2.534;2024-02-23T11:19:09;7.70;99.90
48988;DHT22;34799;51.440;-2.534;2024-02-23T11:21:39;7.70;99.90
48988;DHT22;34799;51.440;-2.534;2024-02-23T11:24:06;7.90;99.90
48988;DHT22;34799;51.440;-2.534;2024-02-23T11:26:37;7.50;99.90
48988;DHT22;34799;51.440;-2.534;2024-02-23T11:29:12;7.40;99.90
48988;DHT22;34799;51.440;-2.534;2024-02-23T11:31:45;7.20;99.90
48988;DHT22;34799;51.440;-2.534;2024-02-23T11:34:22;7.50;99.90
48988;DHT22;34799;51.440;-2.534;2024-02-23T11:36:51;7.40;99.90
48988;DHT22;34799;51.440;-2.534;2024-02-23T11:39:21;7.20;99.90
48988;DHT22;34799;51.440;-2.534;2024-02-23T11:41:49;7.30;99.90
48988;DHT22;34799;51.440;-2.534;2024-02-23T11:44:17;7.50;99.90
48988;DHT22;34799;51.440;-2.534;2024-02-23T11:46:46;7.40;99.90
48988;DHT22;34799;51.440;-2.534;2024-02-23T11:49:14;7.60;99.90
48988;DHT22;34799;51.440;-2.534;2024-02-23T11:51:43;7.70;99.90
48988;DHT22;34799;51.440;-2.534;2024-02-23T11:54:12;7.50;99.90
48988;DHT22;34799;51.440;-2.534;2024-02-23T11:56:40;7.40;99.90
48988;DHT22;34799;51.440;-2.534;2024-02-23T11:59:09;7.70;99.90
48988;DHT22;34799;51.440;-2.534;2024-02-23T12:01:37;7.60;99.90
48988;DHT22;34799;51.440;-2.534;2024-02-23T12:04:04;7.40;99.90
48988;DHT22;34799;51.440;-2.534;2024-02-23T12:06:33;7.60;99.90
48988;DHT22;34799;51.440;-2.534;2024-02-23T12:09:01;7.70;99.90
48988;DHT22;34799;51.440;-2.534;2024-02-23T12:11:28;7.50;99.90
48988;DHT22;34799;51.440;-2.534;2024-02-23T12:16:26;7.50;99.90
48988;DHT22;34799;51.440;-2.534;2024-02-23T12:21:23;7.50;99.90
48988;DHT22;34799;51.440;-2.534;2024-02-23T12:23:51;7.80;99.90
48988;DHT22;34799;51.440;-2.534;2024-02-23T12:26:19;7.70;99.90
48988;DHT22;34799;51.440;-2.534;2024-02-23T12:31:14;8.30;99.90
48988;DHT22;34799;51.440;-2.534;2024-02-23T12:33:42;8.20;99.90
48988;DHT22;34799;51.440;-2.534;2024-02-23T12:36:15;8.30;99.90
48988;DHT22;34799;51.440;-2.534;2024-02-23T12:38:43;8.50;99.90
48988;DHT22;34799;51.440;-2.534;2024-02-23T12:41:10;8.50;99.90
48988;DHT22;34799;51.440;-2.534;2024-02-23T12:43:38;8.40;99.90
48988;DHT22;34799;51.440;-2.534;2024-02-23T12:46:06;8.50;99.90
48988;DHT22;34799;51.440;-2.534;2024-02-23T12:48:35;8.40;99.90
48988;DHT22;34799;51.440;-2.534;2024-02-23T12:51:03;8.50;99.90
48988;DHT22;34799;51.440;-2.534;2024-02-23T12:53:39;8.30;99.90
48988;DHT22;34799;51.440;-2.534;2024-02-23T12:56:08;8.40;99.90
48988;DHT22;34799;51.440;-2.534;2024-02-23T12:58:36;8.40;99.90
48988;DHT22;34799;51.440;-2.534;2024-02-23T13:01:04;8.40;99.90
48988;DHT22;34799;51.440;-2.534;2024-02-23T13:03:34;8.30;99.90
48988;DHT22;34799;51.440;-2.534;2024-02-23T13:06:02;8.50;99.90
48988;DHT22;34799;51.440;-2.534;2024-02-23T13:08:29;8.80;99.90
48988;DHT22;34799;51.440;-2.534;2024-02-23T13:10:57;8.50;99.90
48988;DHT22;34799;51.440;-2.534;2024-02-23T13:13:24;8.80;99.90
48988;DHT22;34799;51.440;-2.534;2024-02-23T13:15:53;8.60;99.90
48988;DHT22;34799;51.440;-2.534;2024-02-23T13:18:21;8.50;99.90
48988;DHT22;34799;51.440;-2.534;2024-02-23T13:20:50;8.20;99.90
48988;DHT22;34799;51.440;-2.534;2024-02-23T13:23:17;8.40;99.90
48988;DHT22;34799;51.440;-2.534;2024-02-23T13:25:45;8.20;99.90
48988;DHT22;34799;51.440;-2.534;2024-02-23T13:28:12;7.90;99.90
48988;DHT22;34799;51.440;-2.534;2024-02-23T13:30:39;7.80;99.90
48988;DHT22;34799;51.440;-2.534;2024-02-23T13:33:10;7.90;99.90
48988;DHT22;34799;51.440;-2.534;2024-02-23T13:35:38;7.90;99.90
48988;DHT22;34799;51.440;-2.534;2024-02-23T13:38:07;7.50;99.90
48988;DHT22;34799;51.440;-2.534;2024-02-23T13:40:36;7.50;99.90
48988;DHT22;34799;51.440;-2.534;2024-02-23T13:43:04;7.70;99.90
48988;DHT22;34799;51.440;-2.534;2024-02-23T13:45:32;7.70;99.90
48988;DHT22;34799;51.440;-2.534;2024-02-23T13:48:01;7.20;99.90
48988;DHT22;34799;51.440;-2.534;2024-02-23T13:50:29;7.30;99.90
48988;DHT22;34799;51.440;-2.534;2024-02-23T13:52:56;7.10;99.90
48988;DHT22;34799;51.440;-2.534;2024-02-23T13:55:24;6.90;99.90
48988;DHT22;34799;51.440;-2.534;2024-02-23T13:57:52;6.80;99.90
48988;DHT22;34799;51.440;-2.534;2024-02-23T14:00:20;7.00;99.90
48988;DHT22;34799;51.440;-2.534;2024-02-23T14:02:47;6.80;99.90
48988;DHT22;34799;51.440;-2.534;2024-02-23T14:05:15;6.80;99.90
48988;DHT22;34799;51.440;-2.534;2024-02-23T14:07:43;7.00;99.90
48988;DHT22;34799;51.440;-2.534;2024-02-23T14:10:10;6.90;99.90
48988;DHT22;34799;51.440;-2.534;2024-02-23T14:12:39;7.70;99.90
48988;DHT22;34799;51.440;-2.534;2024-02-23T14:15:08;7.10;99.90
48988;DHT22;34799;51.440;-2.534;2024-02-23T14:17:38;7.20;99.90
48988;DHT22;34799;51.440;-2.534;2024-02-23T14:20:05;7.30;99.90
48988;DHT22;34799;51.440;-2.534;2024-02-23T14:22:33;7.30;99.90
48988;DHT22;34799;51.440;-2.534;2024-02-23T14:25:01;7.50;99.90
48988;DHT22;34799;51.440;-2.534;2024-02-23T14:27:28;7.60;99.90
48988;DHT22;34799;51.440;-2.534;2024-02-23T14:29:57;7.50;99.90
48988;DHT22;34799;51.440;-2.534;2024-02-23T14:32:24;7.90;99.90
48988;DHT22;34799;51.440;-2.534;2024-02-23T14:34:51;8.00;99.90
48988;DHT22;34799;51.440;-2.534;2024-02-23T14:39:46;8.10;99.90
48988;DHT22;34799;51.440;-2.534;2024-02-23T14:44:41;8.00;99.90
48988;DHT22;34799;51.440;-2.534;2024-02-23T14:47:09;7.80;99.90
48988;DHT22;34799;51.440;-2.534;2024-02-23T14:49:36;8.20;99.90
48988;DHT22;34799;51.440;-2.534;2024-02-23T14:52:04;8.00;99.90
48988;DHT22;34799;51.440;-2.534;2024-02-23T14:54:31;8.00;99.90
48988;DHT22;34799;51.440;-2.534;2024-02-23T14:57:00;8.20;99.90
48988;DHT22;34799;51.440;-2.534;2024-02-23T14:59:27;7.90;99.90
48988;DHT22;34799;51.440;-2.534;2024-02-23T15:01:54;7.80;99.90
48988;DHT22;34799;51.440;-2.534;2024-02-23T15:04:22;8.00;99.90
48988;DHT22;34799;51.440;-2.534;2024-02-23T15:06:49;7.60;99.90
48988;DHT22;34799;51.440;-2.534;2024-02-23T15:09:16;7.80;99.90
48988;DHT22;34799;51.440;-2.534;2024-02-23T15:14:11;7.40;99.90
48988;DHT22;34799;51.440;-2.534;2024-02-23T15:16:42;6.90;99.90
48988;DHT22;34799;51.440;-2.534;2024-02-23T15:19:10;7.60;99.90
48988;DHT22;34799;51.440;-2.534;2024-02-23T15:21:37;7.30;99.90
48988;DHT22;34799;51.440;-2.534;2024-02-23T15:26:34;6.70;99.90
48988;DHT22;34799;51.440;-2.534;2024-02-23T15:29:02;6.90;99.90
48988;DHT22;34799;51.440;-2.534;2024-02-23T15:31:30;6.80;99.90
48988;DHT22;34799;51.440;-2.534;2024-02-23T15:33:58;6.80;99.90
48988;DHT22;34799;51.440;-2.534;2024-02-23T15:36:28;6.60;99.90
48988;DHT22;34799;51.440;-2.534;2024-02-23T15:41:37;6.50;99.90
48988;DHT22;34799;51.440;-2.534;2024-02-23T15:44:06;6.70;99.90
48988;DHT22;34799;51.440;-2.534;2024-02-23T15:46:33;6.80;99.90
48988;DHT22;34799;51.440;-2.534;2024-02-23T15:49:00;6.60;99.90
48988;DHT22;34799;51.440;-2.534;2024-02-23T15:51:29;6.70;99.90
48988;DHT22;34799;51.440;-2.534;2024-02-23T15:54:04;6.60;99.90
48988;DHT22;34799;51.440;-2.534;2024-02-23T15:56:31;6.70;99.90
48988;DHT22;34799;51.440;-2.534;2024-02-23T15:59:00;7.10;99.90
48988;DHT22;34799;51.440;-2.534;2024-02-23T16:01:28;7.00;99.90
48988;DHT22;34799;51.440;-2.534;2024-02-23T16:03:56;6.80;99.90
48988;DHT22;34799;51.440;-2.534;2024-02-23T16:06:24;7.00;99.90
48988;DHT22;34799;51.440;-2.534;2024-02-23T16:08:52;6.90;99.90
48988;DHT22;34799;51.440;-2.534;2024-02-23T16:11:19;6.90;99.90
48988;DHT22;34799;51.440;-2.534;2024-02-23T16:13:46;7.20;99.90
48988;DHT22;34799;51.440;-2.534;2024-02-23T16:16:14;7.10;99.90
48988;DHT22;34799;51.440;-2.534;2024-02-23T16:18:42;7.30;99.90
48988;DHT22;34799;51.440;-2.534;2024-02-23T16:21:11;7.90;99.90
48988;DHT22;34799;51.440;-2.534;2024-02-23T16:23:43;7.20;99.90
48988;DHT22;34799;51.440;-2.534;2024-02-23T16:26:11;7.10;99.90
48988;DHT22;34799;51.440;-2.534;2024-02-23T16:28:39;7.30;99.90
48988;DHT22;34799;51.440;-2.534;2024-02-23T16:31:06;6.90;99.90
48988;DHT22;34799;51.440;-2.534;2024-02-23T16:33:33;7.10;99.90
48988;DHT22;34799;51.440;-2.534;2024-02-23T16:36:00;7.10;99.90
48988;DHT22;34799;51.440;-2.534;2024-02-23T16:40:55;7.60;99.90
48988;DHT22;34799;51.440;-2.534;2024-02-23T16:45:50;7.50;99.90
48988;DHT22;34799;51.440;-2.534;2024-02-23T16:48:18;7.70;99.90
48988;DHT22;34799;51.440;-2.534;2024-02-23T16:53:13;7.40;99.90
48988;DHT22;34799;51.440;-2.534;2024-02-23T16:55:41;7.50;99.90
48988;DHT22;34799;51.440;-2.534;2024-02-23T16:58:08;7.40;99.90
48988;DHT22;34799;51.440;-2.534;2024-02-23T17:00:36;7.60;99.90
48988;DHT22;34799;51.440;-2.534;2024-02-23T17:03:04;7.40;99.90
48988;DHT22;34799;51.440;-2.534;2024-02-23T17:05:31;7.60;99.90
48988;DHT22;34799;51.440;-2.534;2024-02-23T17:07:58;7.20;99.90
48988;DHT22;34799;51.440;-2.534;2024-02-23T17:10:25;7.60;99.90
48988;DHT22;34799;51.440;-2.534;2024-02-23T17:12:53;7.70;99.90
48988;DHT22;34799;51.440;-2.534;2024-02-23T17:15:22;7.60;99.90
48988;DHT22;34799;51.440;-2.534;2024-02-23T17:17:49;7.50;99.90
48988;DHT22;34799;51.440;-2.534;2024-02-23T17:20:17;7.70;99.90
48988;DHT22;34799;51.440;-2.534;2024-02-23T17:22:45;7.50;99.90
48988;DHT22;34799;51.440;-2.534;2024-02-23T17:25:15;7.50;99.90
48988;DHT22;34799;51.440;-2.534;2024-02-23T17:30:11;7.70;99.90
48988;DHT22;34799;51.440;-2.534;2024-02-23T17:32:38;7.50;99.90
48988;DHT22;34799;51.440;-2.534;2024-02-23T17:35:06;7.50;99.90
48988;DHT22;34799;51.440;-2.534;2024-02-23T17:40:01;7.30;99.90
48988;DHT22;34799;51.440;-2.534;2024-02-23T17:42:29;7.10;99.90
48988;DHT22;34799;51.440;-2.534;2024-02-23T17:44:56;7.10;99.90